createdAt,value
2019-05-29T00:00:20.099Z,14.01
2019-05-29T00:03:25.175Z,13.91
2019-05-29T00:06:29.897Z,13.84
2019-05-29T00:09:35.323Z,13.83
2019-05-29T00:12:40.084Z,13.83
2019-05-29T00:15:44.867Z,13.88
2019-05-29T00:18:49.867Z,13.81
2019-05-29T00:21:54.678Z,13.73
2019-05-29T00:24:59.433Z,13.68
2019-05-29T00:28:04.539Z,13.62
2019-05-29T00:31:10.009Z,13.46
2019-05-29T00:34:15.816Z,13.29
2019-05-29T00:37:21.125Z,13.02
2019-05-29T00:40:25.864Z,12.78
2019-05-29T00:43:30.927Z,12.60
2019-05-29T00:46:35.794Z,12.43
2019-05-29T00:49:40.912Z,12.43
2019-05-29T00:52:46.536Z,12.48
2019-05-29T00:55:52.635Z,12.49
2019-05-29T00:58:57.362Z,12.51
2019-05-29T01:02:02.385Z,12.57
2019-05-29T01:05:07.209Z,12.60
2019-05-29T01:08:12.556Z,12.51
2019-05-29T01:11:17.424Z,12.43
2019-05-29T01:14:22.563Z,12.36
2019-05-29T01:17:27.290Z,12.30
2019-05-29T01:20:32.115Z,12.27
2019-05-29T01:23:37.137Z,12.26
2019-05-29T01:26:42.215Z,12.34
2019-05-29T01:29:46.962Z,12.39
2019-05-29T01:32:52.152Z,12.37
2019-05-29T01:35:57.179Z,12.35
2019-05-29T01:39:02.466Z,12.26
2019-05-29T01:42:07.866Z,12.42
2019-05-29T01:45:13.049Z,12.51
2019-05-29T01:48:18.133Z,12.49
2019-05-29T01:51:23.766Z,12.53
2019-05-29T01:54:29.668Z,12.47
2019-05-29T01:57:35.047Z,12.50
2019-05-29T02:00:39.896Z,12.33
2019-05-29T02:03:44.653Z,12.37
2019-05-29T02:06:49.433Z,12.27
2019-05-29T02:09:54.854Z,12.37
2019-05-29T02:12:59.882Z,12.27
2019-05-29T02:16:05.651Z,12.33
2019-05-29T02:19:10.482Z,12.36
2019-05-29T02:22:15.333Z,12.37
2019-05-29T02:25:22.474Z,12.47
2019-05-29T02:28:28.436Z,12.41
2019-05-29T02:31:33.510Z,12.40
2019-05-29T02:34:38.560Z,12.39
2019-05-29T02:37:43.606Z,12.47
2019-05-29T02:40:48.352Z,12.75
2019-05-29T02:43:53.533Z,12.67
2019-05-29T02:46:58.681Z,12.80
2019-05-29T02:50:04.493Z,12.83
2019-05-29T02:53:09.828Z,12.95
2019-05-29T02:56:14.931Z,12.83
2019-05-29T02:59:21.025Z,12.75
2019-05-29T03:02:27.762Z,12.70
2019-05-29T03:05:32.620Z,12.62
2019-05-29T03:08:37.989Z,12.46
2019-05-29T03:11:43.594Z,12.32
2019-05-29T03:14:48.646Z,12.30
2019-05-29T03:17:53.916Z,12.33
2019-05-29T03:20:58.758Z,12.38
2019-05-29T03:24:04.318Z,12.48
2019-05-29T03:27:09.079Z,12.45
2019-05-29T03:30:15.332Z,12.55
2019-05-29T03:33:20.342Z,12.57
2019-05-29T03:36:28.383Z,12.47
2019-05-29T03:39:32.351Z,12.45
2019-05-29T03:42:39.056Z,12.34
2019-05-29T03:45:45.046Z,12.33
2019-05-29T03:48:49.800Z,12.33
2019-05-29T03:51:54.810Z,12.38
2019-05-29T03:54:59.794Z,12.37
2019-05-29T03:58:04.729Z,12.46
2019-05-29T04:01:09.467Z,12.54
2019-05-29T04:04:14.227Z,12.65
2019-05-29T04:07:19.273Z,12.63
2019-05-29T04:10:34.194Z,12.63
2019-05-29T04:13:38.759Z,12.67
2019-05-29T04:16:59.011Z,12.58
2019-05-29T04:19:52.745Z,12.52
2019-05-29T04:22:59.861Z,12.54
2019-05-29T04:26:06.086Z,12.63
2019-05-29T04:29:12.581Z,12.68
2019-05-29T04:32:17.601Z,12.55
2019-05-29T04:35:22.393Z,12.53
2019-05-29T04:38:28.632Z,12.47
2019-05-29T04:41:34.704Z,12.50
2019-05-29T04:44:41.146Z,12.38
2019-05-29T04:47:46.446Z,12.38
2019-05-29T04:50:51.273Z,12.54
2019-05-29T04:53:56.042Z,12.55
2019-05-29T04:57:00.774Z,12.48
2019-05-29T05:00:05.823Z,12.55
2019-05-29T05:03:10.586Z,12.61
2019-05-29T05:06:15.333Z,12.69
2019-05-29T05:09:20.372Z,12.70
2019-05-29T05:12:25.680Z,12.81
2019-05-29T05:15:31.732Z,12.83
2019-05-29T05:18:37.903Z,12.86
2019-05-29T05:21:42.777Z,12.87
2019-05-29T05:24:47.568Z,12.92
2019-05-29T05:27:52.329Z,12.89
2019-05-29T05:30:57.143Z,13.00
2019-05-29T05:34:02.023Z,12.94
2019-05-29T05:37:06.860Z,12.99
2019-05-29T05:40:11.868Z,13.06
2019-05-29T05:43:24.173Z,13.13
2019-05-29T05:46:24.836Z,13.08
2019-05-29T05:49:31.244Z,13.18
2019-05-29T05:52:37.407Z,13.22
2019-05-29T05:55:42.603Z,13.33
2019-05-29T05:58:47.495Z,13.32
2019-05-29T06:01:52.642Z,13.35
2019-05-29T06:04:57.643Z,13.23
2019-05-29T06:08:02.519Z,13.07
2019-05-29T06:11:07.295Z,13.02
2019-05-29T06:14:12.051Z,13.20
2019-05-29T06:17:17.083Z,13.26
2019-05-29T06:20:22.348Z,13.18
2019-05-29T06:23:27.203Z,13.27
2019-05-29T06:26:32.780Z,13.36
2019-05-29T06:29:37.608Z,13.39
2019-05-29T06:32:43.621Z,13.37
2019-05-29T06:35:48.357Z,13.50
2019-05-29T06:38:53.114Z,13.62
2019-05-29T06:41:58.224Z,13.67
2019-05-29T06:45:03.792Z,13.65
2019-05-29T06:48:09.745Z,13.63
2019-05-29T06:51:14.479Z,13.62
2019-05-29T06:54:20.754Z,13.78
2019-05-29T06:57:26.100Z,13.87
2019-05-29T07:00:35.566Z,13.82
2019-05-29T07:03:39.737Z,13.83
2019-05-29T07:06:44.907Z,13.97
2019-05-29T07:09:49.925Z,13.97
2019-05-29T07:12:54.668Z,14.02
2019-05-29T07:15:59.869Z,13.90
2019-05-29T07:22:11.279Z,14.13
2019-05-29T07:25:16.182Z,14.11
2019-05-29T07:28:20.967Z,14.14
2019-05-29T07:31:25.710Z,14.25
2019-05-29T07:34:30.758Z,14.33
2019-05-29T07:37:37.714Z,14.40
2019-05-29T07:40:45.088Z,14.47
2019-05-29T07:43:50.191Z,14.70
2019-05-29T07:46:55.306Z,14.67
2019-05-29T07:50:00.073Z,14.55
2019-05-29T07:53:09.120Z,14.43
2019-05-29T07:56:22.540Z,14.43
2019-05-29T07:59:21.991Z,14.69
2019-05-29T08:02:27.114Z,14.81
2019-05-29T08:05:31.932Z,14.82
2019-05-29T08:08:37.021Z,14.71
2019-05-29T08:11:41.818Z,14.91
2019-05-29T08:14:47.810Z,14.90
2019-05-29T08:17:52.786Z,14.92
2019-05-29T08:20:57.788Z,15.19
2019-05-29T08:24:02.533Z,15.18
2019-05-29T08:27:07.353Z,15.14
2019-05-29T08:30:12.265Z,15.34
2019-05-29T08:33:17.002Z,15.49
2019-05-29T08:36:22.202Z,15.53
2019-05-29T08:39:36.127Z,15.50
2019-05-29T08:42:34.201Z,15.36
2019-05-29T08:45:39.353Z,14.91
2019-05-29T08:48:45.771Z,14.75
2019-05-29T08:51:52.328Z,14.88
2019-05-29T08:54:57.100Z,14.73
2019-05-29T08:58:01.863Z,14.84
2019-05-29T09:01:06.696Z,15.01
2019-05-29T09:04:11.805Z,14.96
2019-05-29T09:07:16.620Z,14.89
2019-05-29T09:10:21.608Z,14.68
2019-05-29T09:13:26.333Z,14.64
2019-05-29T09:16:31.512Z,14.70
2019-05-29T09:19:39.313Z,14.56
2019-05-29T09:22:44.374Z,14.65
2019-05-29T09:25:49.470Z,14.78
2019-05-29T09:28:54.716Z,14.91
2019-05-29T09:31:59.445Z,14.94
2019-05-29T09:35:05.185Z,14.99
2019-05-29T09:38:10.141Z,15.11
2019-05-29T09:41:16.294Z,15.26
2019-05-29T09:44:34.028Z,15.38
2019-05-29T09:47:28.331Z,15.39
2019-05-29T09:50:49.505Z,15.47
2019-05-29T09:53:39.963Z,15.39
2019-05-29T09:56:44.974Z,15.57
2019-05-29T09:59:49.836Z,15.74
2019-05-29T10:02:55.608Z,15.83
2019-05-29T10:06:01.527Z,15.85
2019-05-29T10:09:08.017Z,15.91
2019-05-29T10:12:12.876Z,15.88
2019-05-29T10:15:20.442Z,16.00
2019-05-29T10:18:32.076Z,16.29
2019-05-29T10:21:40.245Z,16.42
2019-05-29T10:24:39.045Z,16.89
2019-05-29T10:27:44.125Z,17.53
2019-05-29T10:30:50.224Z,17.83
2019-05-29T10:33:55.277Z,17.83
2019-05-29T10:37:00.047Z,17.89
2019-05-29T10:40:05.599Z,17.54
2019-05-29T10:43:10.488Z,17.89
2019-05-29T10:46:15.748Z,17.89
2019-05-29T10:49:20.701Z,17.33
2019-05-29T10:52:25.534Z,17.48
2019-05-29T10:55:31.344Z,17.46
2019-05-29T10:58:48.619Z,17.60
2019-05-29T11:01:42.543Z,18.23
2019-05-29T11:04:51.584Z,18.21
2019-05-29T11:07:54.099Z,17.89
2019-05-29T11:10:59.899Z,18.15
2019-05-29T11:14:04.734Z,18.28
2019-05-29T11:17:10.082Z,18.31
2019-05-29T11:20:15.742Z,18.51
2019-05-29T11:23:20.466Z,18.78
2019-05-29T11:26:25.670Z,18.63
2019-05-29T11:29:30.745Z,18.37
2019-05-29T11:32:35.866Z,18.42
2019-05-29T11:35:57.183Z,18.44
2019-05-29T11:38:47.183Z,18.31
2019-05-29T11:41:52.710Z,18.29
2019-05-29T11:44:59.420Z,18.38
2019-05-29T11:48:05.313Z,18.16
2019-05-29T11:51:10.281Z,18.13
2019-05-29T11:54:15.040Z,18.34
2019-05-29T11:57:19.817Z,18.30
2019-05-29T12:00:25.192Z,18.51
2019-05-29T12:03:29.926Z,18.60
2019-05-29T12:06:35.185Z,17.90
2019-05-29T12:09:40.464Z,17.79
2019-05-29T12:12:45.493Z,17.59
2019-05-29T12:15:51.502Z,17.16
2019-05-29T12:18:57.731Z,17.14
2019-05-29T12:22:03.086Z,17.15
2019-05-29T12:25:08.673Z,17.10
2019-05-29T12:28:13.691Z,17.13
2019-05-29T12:31:19.210Z,16.91
2019-05-29T12:34:24.388Z,16.80
2019-05-29T12:37:29.243Z,16.80
2019-05-29T12:40:34.066Z,16.79
2019-05-29T12:43:40.087Z,16.62
2019-05-29T12:46:44.889Z,16.64
2019-05-29T12:49:49.730Z,16.82
2019-05-29T12:52:55.722Z,16.83
2019-05-29T12:56:02.598Z,16.92
2019-05-29T12:59:07.594Z,17.00
2019-05-29T13:02:12.852Z,17.11
2019-05-29T13:05:20.687Z,16.99
2019-05-29T13:08:25.173Z,17.30
2019-05-29T13:11:30.551Z,17.30
2019-05-29T13:14:35.745Z,17.51
2019-05-29T13:17:40.779Z,17.68
2019-05-29T13:20:45.582Z,17.95
2019-05-29T13:23:50.383Z,17.96
2019-05-29T13:26:55.564Z,17.97
2019-05-29T13:30:03.540Z,18.00
2019-05-29T13:33:08.836Z,18.08
2019-05-29T13:36:13.622Z,18.11
2019-05-29T13:39:18.480Z,18.18
2019-05-29T13:42:23.385Z,18.21
2019-05-29T13:45:28.207Z,18.44
2019-05-29T13:48:33.243Z,18.39
2019-05-29T13:51:38.332Z,18.44
2019-05-29T13:54:44.069Z,18.52
2019-05-29T13:57:48.828Z,18.53
2019-05-29T14:00:53.956Z,18.70
2019-05-29T14:04:00.070Z,18.97
2019-05-29T14:07:06.606Z,19.20
2019-05-29T14:10:11.935Z,19.65
2019-05-29T14:13:16.797Z,19.69
2019-05-29T14:16:21.792Z,19.75
2019-05-29T14:19:26.623Z,19.14
2019-05-29T14:22:32.167Z,19.24
2019-05-29T14:25:36.947Z,19.37
2019-05-29T14:28:41.718Z,20.01
2019-05-29T14:31:46.784Z,20.31
2019-05-29T14:34:51.923Z,20.36
2019-05-29T14:37:56.738Z,20.80
2019-05-29T14:41:01.756Z,20.89
2019-05-29T14:44:07.815Z,20.71
2019-05-29T14:47:13.436Z,20.29
2019-05-29T14:50:18.688Z,20.95
2019-05-29T14:53:23.565Z,21.13
2019-05-29T14:56:28.473Z,21.19
2019-05-29T14:59:34.406Z,21.39
2019-05-29T15:02:39.471Z,21.51
2019-05-29T15:05:44.276Z,21.65
2019-05-29T15:08:49.284Z,21.84
2019-05-29T15:11:54.427Z,21.98
2019-05-29T15:14:59.884Z,22.13
2019-05-29T15:18:04.979Z,22.00
2019-05-29T15:21:11.158Z,22.03
2019-05-29T15:24:16.283Z,21.88
2019-05-29T15:27:21.037Z,21.64
2019-05-29T15:30:26.088Z,20.94
2019-05-29T15:33:30.835Z,20.79
2019-05-29T15:36:35.558Z,20.98
2019-05-29T15:39:40.666Z,20.96
2019-05-29T15:42:45.397Z,21.21
2019-05-29T15:45:50.172Z,20.93
2019-05-29T15:48:54.916Z,20.84
2019-05-29T15:51:59.683Z,20.67
2019-05-29T15:55:21.295Z,20.65
2019-05-29T15:58:11.433Z,20.69
2019-05-29T16:01:17.844Z,20.62
2019-05-29T16:04:23.739Z,21.14
2019-05-29T16:07:28.514Z,21.43
2019-05-29T16:10:33.331Z,21.48
2019-05-29T16:13:38.402Z,21.54
2019-05-29T16:16:43.213Z,21.46
2019-05-29T16:19:47.958Z,21.75
2019-05-29T16:22:52.791Z,21.75
2019-05-29T16:25:57.561Z,21.82
2019-05-29T16:29:02.925Z,21.03
2019-05-29T16:32:07.789Z,20.95
2019-05-29T16:35:13.530Z,21.15
2019-05-29T16:38:19.411Z,20.88
2019-05-29T16:41:24.728Z,21.16
2019-05-29T16:44:29.978Z,21.35
2019-05-29T16:47:35.048Z,21.41
2019-05-29T16:50:40.361Z,21.00
2019-05-29T16:53:48.739Z,20.92
2019-05-29T16:56:53.625Z,21.10
2019-05-29T16:59:58.428Z,21.40
2019-05-29T17:03:03.309Z,21.50
2019-05-29T17:06:08.101Z,21.67
2019-05-29T17:09:14.516Z,21.68
2019-05-29T17:12:20.426Z,21.43
2019-05-29T17:15:25.363Z,21.64
2019-05-29T17:18:30.222Z,21.35
2019-05-29T17:21:35.451Z,21.40
2019-05-29T17:24:40.299Z,21.16
2019-05-29T17:27:45.245Z,21.02
2019-05-29T17:30:50.075Z,21.10
2019-05-29T17:33:55.126Z,21.03
2019-05-29T17:36:59.999Z,21.01
2019-05-29T17:40:05.866Z,20.97
2019-05-29T17:43:10.689Z,20.88
2019-05-29T17:46:15.523Z,20.55
2019-05-29T17:49:24.941Z,20.31
2019-05-29T17:52:26.852Z,19.99
2019-05-29T17:55:31.920Z,19.94
2019-05-29T17:58:36.702Z,19.79
2019-05-29T18:01:41.530Z,19.74
2019-05-29T18:04:46.673Z,19.62
2019-05-29T18:07:51.589Z,19.45
2019-05-29T18:10:56.466Z,19.50
2019-05-29T18:14:05.015Z,19.53
2019-05-29T18:17:08.320Z,19.46
2019-05-29T18:20:14.805Z,19.50
2019-05-29T18:23:21.612Z,19.27
2019-05-29T18:26:42.606Z,19.17
2019-05-29T18:29:33.517Z,19.18
2019-05-29T18:32:38.707Z,19.14
2019-05-29T18:35:43.847Z,19.10
2019-05-29T18:38:48.618Z,19.10
2019-05-29T18:41:53.749Z,19.11
2019-05-29T18:44:59.859Z,19.03
2019-05-29T18:48:04.823Z,18.90
2019-05-29T18:51:09.693Z,18.84
2019-05-29T18:54:15.297Z,18.78
2019-05-29T18:57:20.824Z,18.79
2019-05-29T19:00:25.791Z,18.78
2019-05-29T19:03:32.611Z,18.54
2019-05-29T19:06:37.388Z,18.49
2019-05-29T19:09:42.449Z,18.50
2019-05-29T19:12:47.504Z,18.52
2019-05-29T19:15:52.352Z,18.52
2019-05-29T19:18:57.477Z,18.44
2019-05-29T19:22:02.233Z,18.40
2019-05-29T19:25:07.302Z,18.29
2019-05-29T19:28:12.316Z,18.10
2019-05-29T19:31:17.228Z,18.02
2019-05-29T19:34:23.154Z,18.02
2019-05-29T19:37:28.064Z,17.97
2019-05-29T19:40:34.546Z,17.85
2019-05-29T19:43:39.406Z,17.68
2019-05-29T19:46:53.542Z,17.52
2019-05-29T19:49:50.593Z,17.50
2019-05-29T19:52:55.457Z,17.42
2019-05-29T19:56:00.262Z,17.37
2019-05-29T19:59:05.167Z,17.37
2019-05-29T20:02:10.392Z,17.30
2019-05-29T20:05:15.808Z,17.38
2019-05-29T20:08:20.535Z,17.43
2019-05-29T20:11:25.261Z,17.44
2019-05-29T20:14:31.745Z,17.41
2019-05-29T20:17:36.763Z,17.36
2019-05-29T20:20:42.470Z,17.38
2019-05-29T20:23:47.277Z,17.32
2019-05-29T20:26:52.010Z,17.20
2019-05-29T20:29:56.765Z,17.04
2019-05-29T20:33:01.524Z,16.96
2019-05-29T20:36:06.333Z,16.94
2019-05-29T20:39:11.081Z,16.96
2019-05-29T20:42:15.798Z,16.87
2019-05-29T20:45:20.695Z,16.88
2019-05-29T20:48:25.738Z,16.85
2019-05-29T20:51:30.563Z,16.69
2019-05-29T20:54:35.617Z,16.63
2019-05-29T20:57:40.371Z,16.66
2019-05-29T21:00:45.203Z,16.57
2019-05-29T21:03:50.018Z,16.40
2019-05-29T21:06:54.779Z,16.33
2019-05-29T21:09:59.748Z,16.31
2019-05-29T21:13:04.643Z,16.29
2019-05-29T21:16:09.358Z,16.24
2019-05-29T21:19:14.347Z,16.24
2019-05-29T21:22:19.097Z,16.17
2019-05-29T21:25:24.496Z,16.10
2019-05-29T21:28:40.011Z,16.16
2019-05-29T21:31:35.769Z,16.10
2019-05-29T21:34:41.851Z,16.07
2019-05-29T21:37:46.779Z,15.93
2019-05-29T21:40:53.094Z,15.98
2019-05-29T21:43:58.182Z,15.90
2019-05-29T21:47:03.044Z,15.73
2019-05-29T21:50:09.414Z,15.73
2019-05-29T21:53:14.275Z,15.63
2019-05-29T21:56:19.095Z,15.63
2019-05-29T21:59:23.826Z,15.69
2019-05-29T22:02:28.786Z,15.66
2019-05-29T22:05:33.802Z,15.56
2019-05-29T22:08:38.837Z,15.47
2019-05-29T22:11:44.161Z,15.47
2019-05-29T22:14:50.718Z,15.45
2019-05-29T22:17:57.069Z,15.33
2019-05-29T22:21:02.193Z,15.33
2019-05-29T22:24:07.722Z,15.40
2019-05-29T22:27:12.830Z,15.34
2019-05-29T22:30:18.336Z,15.34
2019-05-29T22:33:23.560Z,15.21
2019-05-29T22:36:28.761Z,15.17
2019-05-29T22:39:33.616Z,15.12
2019-05-29T22:42:38.712Z,15.05
2019-05-29T22:45:43.599Z,14.96
2019-05-29T22:48:48.356Z,14.90
2019-05-29T22:51:53.667Z,14.77
2019-05-29T22:54:59.925Z,14.65
2019-05-29T22:58:05.036Z,14.50
2019-05-29T23:01:09.872Z,14.43
2019-05-29T23:04:14.922Z,14.31
2019-05-29T23:07:19.650Z,14.31
2019-05-29T23:10:24.508Z,14.24
2019-05-29T23:13:29.314Z,14.18
2019-05-29T23:16:34.072Z,14.14
2019-05-29T23:19:39.138Z,14.20
2019-05-29T23:22:43.916Z,14.12
2019-05-29T23:25:50.026Z,14.04
2019-05-29T23:28:55.093Z,13.98
2019-05-29T23:32:00.998Z,13.88
2019-05-29T23:35:06.227Z,13.87
2019-05-29T23:38:10.953Z,13.78
2019-05-29T23:41:16.093Z,13.82
2019-05-29T23:44:21.232Z,13.76
2019-05-29T23:47:25.994Z,13.68
2019-05-29T23:50:30.878Z,13.70
2019-05-29T23:53:35.635Z,13.65
2019-05-29T23:56:40.506Z,13.63
2019-05-29T23:59:45.550Z,13.67
